Time;durP1;ratioP1;P1;durP2;ratioP2;P2;SDS_P1;SDS_P2;PMS_P1;PMS_P2;Temp;Humidity;BMP_temperature;BMP_pressure;BME280_temperature;BME280_humidity;BME280_pressure;Samples;Min_cycle;Max_cycle;Signal;HPM_P1;HPM_P2
2021/10/10 00:00:04;;;;;;;;;;;;;;;5.69;76.64;102039.44;1898977;76;20151;-63
2021/10/10 00:02:34;;;;;;;;;;;;;;;5.71;76.75;102042.92;1898025;75;20175;-63
2021/10/10 00:05:01;;;;;;;;;;;;;;;5.74;76.61;102045.55;1898855;74;20116;-63
2021/10/10 00:07:29;;;;;;;;;;;;;;;5.75;76.63;102042.05;1898858;76;20140;-63
2021/10/10 00:09:57;;;;;;;;;;;;;;;5.76;77.07;102042.95;1898913;76;20146;-64
2021/10/10 00:12:25;;;;;;;;;;;;;;;5.76;77.16;102048.17;1898902;76;20186;-63
2021/10/10 00:14:53;;;;;;;;;;;;;;;5.76;76.96;102051.65;1898911;76;20116;-63
2021/10/10 00:17:20;;;;;;;;;;;;;;;5.79;76.83;102057.30;1898953;76;20116;-63
2021/10/10 00:19:48;;;;;;;;;;;;;;;5.79;76.90;102049.05;1898940;75;20120;-64
2021/10/10 00:22:16;;;;;;;;;;;;;;;5.78;76.88;102048.60;1898900;76;20116;-64
2021/10/10 00:24:44;;;;;;;;;;;;;;;5.77;76.94;102050.80;1898819;75;20164;-64
2021/10/10 00:27:12;;;;;;;;;;;;;;;5.74;77.08;102049.47;1898925;76;20152;-64
2021/10/10 00:29:39;;;;;;;;;;;;;;;5.72;76.93;102049.91;1898949;75;20116;-65
2021/10/10 00:32:07;;;;;;;;;;;;;;;5.70;76.79;102045.11;1898920;76;20116;-64
2021/10/10 00:34:35;;;;;;;;;;;;;;;5.67;76.62;102050.32;1898881;76;20112;-64
2021/10/10 00:37:03;;;;;;;;;;;;;;;5.64;76.47;102043.77;1898920;76;20139;-64
2021/10/10 00:39:31;;;;;;;;;;;;;;;5.57;76.50;102045.52;1898842;76;20116;-64
2021/10/10 00:41:59;;;;;;;;;;;;;;;5.51;76.57;102049.84;1898846;76;20112;-68
2021/10/10 00:44:27;;;;;;;;;;;;;;;5.45;76.74;102049.83;1898940;76;20124;-67
2021/10/10 00:46:55;;;;;;;;;;;;;;;5.39;77.08;102041.10;1898919;76;20119;-67
2021/10/10 00:49:23;;;;;;;;;;;;;;;5.37;77.10;102048.06;1898945;76;20120;-67
2021/10/10 00:51:51;;;;;;;;;;;;;;;5.37;77.23;102047.20;1898775;76;20116;-66
2021/10/10 00:54:20;;;;;;;;;;;;;;;5.38;77.25;102051.09;1899002;75;20370;-66
2021/10/10 00:56:49;;;;;;;;;;;;;;;5.35;77.68;102047.19;1898945;76;20402;-66
2021/10/10 00:59:18;;;;;;;;;;;;;;;5.35;77.99;102048.50;1898903;75;20116;-66
2021/10/10 01:01:47;;;;;;;;;;;;;;;5.39;77.84;102050.69;1898501;76;20108;-62
2021/10/10 01:04:15;;;;;;;;;;;;;;;5.43;78.01;102053.74;1898876;76;20112;-62
2021/10/10 01:06:43;;;;;;;;;;;;;;;5.41;78.09;102051.56;1898864;75;20231;-62
2021/10/10 01:09:14;;;;;;;;;;;;;;;5.39;78.54;102058.53;1898894;76;20147;-62
2021/10/10 01:11:43;;;;;;;;;;;;;;;5.37;78.42;102056.34;1898933;75;20107;-66
2021/10/10 01:14:12;;;;;;;;;;;;;;;5.35;78.68;102060.70;1898949;76;20143;-67
2021/10/10 01:16:40;;;;;;;;;;;;;;;5.37;78.50;102061.13;1898929;76;20120;-60
2021/10/10 01:19:08;;;;;;;;;;;;;;;5.39;78.21;102063.31;1898995;76;20124;-60
2021/10/10 01:21:36;;;;;;;;;;;;;;;5.40;78.02;102067.67;1898868;76;20194;-60
2021/10/10 01:24:04;;;;;;;;;;;;;;;5.40;77.90;102066.38;1898873;76;20163;-60
2021/10/10 01:26:32;;;;;;;;;;;;;;;5.43;77.82;102069.86;1898875;76;20151;-60
2021/10/10 01:29:00;;;;;;;;;;;;;;;5.42;77.71;102065.05;1898878;76;20116;-60
2021/10/10 01:31:28;;;;;;;;;;;;;;;5.43;77.57;102065.94;1898952;76;20112;-60
2021/10/10 01:33:56;;;;;;;;;;;;;;;5.42;77.49;102074.19;1898915;76;20167;-60
2021/10/10 01:36:24;;;;;;;;;;;;;;;5.43;77.51;102068.55;1898852;75;20175;-60
2021/10/10 01:38:52;;;;;;;;;;;;;;;5.43;77.53;102072.47;1898916;76;20118;-60
2021/10/10 01:41:20;;;;;;;;;;;;;;;5.43;77.76;102072.03;1898858;76;20108;-60
2021/10/10 01:43:48;;;;;;;;;;;;;;;5.43;78.00;102073.33;1898915;76;20116;-60
2021/10/10 01:46:16;;;;;;;;;;;;;;;5.40;78.03;102070.29;1898751;76;20203;-60
2021/10/10 01:48:44;;;;;;;;;;;;;;;5.38;78.09;102073.30;1898881;76;20388;-60
2021/10/10 01:51:13;;;;;;;;;;;;;;;5.38;78.47;102075.91;1898901;76;20120;-60
2021/10/10 01:53:41;;;;;;;;;;;;;;;5.39;78.97;102069.84;1898952;76;20158;-60
2021/10/10 01:56:09;;;;;;;;;;;;;;;5.38;79.22;102065.47;1898852;76;20120;-60
2021/10/10 01:58:37;;;;;;;;;;;;;;;5.37;78.86;102065.05;1898806;76;20144;-61
2021/10/10 02:01:05;;;;;;;;;;;;;;;5.35;78.80;102069.39;1898956;76;20179;-60
2021/10/10 02:03:33;;;;;;;;;;;;;;;5.35;79.29;102075.92;1898917;76;20147;-60
2021/10/10 02:06:01;;;;;;;;;;;;;;;5.37;79.18;102076.80;1898868;76;20147;-60
2021/10/10 02:08:29;;;;;;;;;;;;;;;5.39;78.92;102077.67;1898904;76;20112;-60
2021/10/10 02:10:58;;;;;;;;;;;;;;;5.43;78.76;102082.92;1898858;76;20154;-62
2021/10/10 02:13:25;;;;;;;;;;;;;;;5.44;78.61;102077.70;1898834;76;20147;-60
2021/10/10 02:15:53;;;;;;;;;;;;;;;5.45;78.49;102073.34;1898896;76;20108;-60
2021/10/10 02:18:21;;;;;;;;;;;;;;;5.43;78.61;102076.39;1898932;76;20112;-60
2021/10/10 02:20:49;;;;;;;;;;;;;;;5.38;78.98;102074.61;1898867;76;20116;-61
2021/10/10 02:23:18;;;;;;;;;;;;;;;5.35;79.38;102070.70;1898845;76;20394;-60
2021/10/10 02:25:46;;;;;;;;;;;;;;;5.31;79.37;102068.95;1898823;76;20120;-60
2021/10/10 02:28:15;;;;;;;;;;;;;;;5.27;79.38;102061.08;1898885;76;20471;-60
2021/10/10 02:30:44;;;;;;;;;;;;;;;5.25;79.10;102056.28;1898049;75;20162;-60
2021/10/10 02:33:12;;;;;;;;;;;;;;;5.22;79.29;102053.24;1898853;76;20116;-60
2021/10/10 02:35:40;;;;;;;;;;;;;;;5.22;79.39;102054.55;1898916;76;20147;-60
2021/10/10 02:38:07;;;;;;;;;;;;;;;5.24;79.11;102052.81;1898798;76;20120;-60
2021/10/10 02:40:35;;;;;;;;;;;;;;;5.25;79.06;102054.98;1898890;76;20365;-61
2021/10/10 02:43:03;;;;;;;;;;;;;;;5.29;78.90;102061.52;1898843;76;20116;-60
2021/10/10 02:45:31;;;;;;;;;;;;;;;5.32;78.80;102060.23;1898890;76;20120;-60
2021/10/10 02:47:59;;;;;;;;;;;;;;;5.37;78.71;102068.96;1898855;76;20142;-60
2021/10/10 02:50:27;;;;;;;;;;;;;;;5.39;78.64;102075.06;1898824;76;20116;-60
2021/10/10 02:52:55;;;;;;;;;;;;;;;5.43;78.54;102069.86;1898792;76;20163;-60
2021/10/10 02:55:23;;;;;;;;;;;;;;;5.44;78.41;102074.20;1898844;75;20124;-60
2021/10/10 02:57:51;;;;;;;;;;;;;;;5.45;78.38;102082.48;1898939;76;20120;-60
2021/10/10 03:00:18;;;;;;;;;;;;;;;5.44;78.35;102079.42;1898961;76;20150;-60
2021/10/10 03:02:46;;;;;;;;;;;;;;;5.43;78.26;102077.70;1898940;76;20120;-60
2021/10/10 03:05:14;;;;;;;;;;;;;;;5.40;78.26;102072.91;1898925;75;20120;-61
2021/10/10 03:07:42;;;;;;;;;;;;;;;5.37;78.37;102070.70;1898946;76;20213;-60
2021/10/10 03:10:10;;;;;;;;;;;;;;;5.35;78.27;102061.56;1899001;76;20115;-60
2021/10/10 03:12:38;;;;;;;;;;;;;;;5.32;78.18;102053.70;1898949;76;20155;-60
2021/10/10 03:15:06;;;;;;;;;;;;;;;5.27;78.17;102062.38;1898908;76;20154;-60
2021/10/10 03:17:34;;;;;;;;;;;;;;;5.22;78.17;102055.85;1898862;76;20116;-60
2021/10/10 03:20:02;;;;;;;;;;;;;;;5.20;78.17;102054.95;1898838;76;20116;-60
2021/10/10 03:22:29;;;;;;;;;;;;;;;5.19;78.31;102055.83;1898913;76;20100;-60
2021/10/10 03:24:57;;;;;;;;;;;;;;;5.19;78.98;102061.91;1898957;76;20120;-60
2021/10/10 03:27:25;;;;;;;;;;;;;;;5.20;79.19;102068.00;1898958;76;20171;-60
2021/10/10 03:29:54;;;;;;;;;;;;;;;5.23;79.02;102071.50;1898973;76;20120;-60
2021/10/10 03:32:21;;;;;;;;;;;;;;;5.25;78.96;102068.91;1899097;75;20104;-60
2021/10/10 03:34:49;;;;;;;;;;;;;;;5.26;79.71;102078.50;1898873;76;20124;-60
2021/10/10 03:37:17;;;;;;;;;;;;;;;5.25;79.67;102074.13;1898998;76;20147;-60
2021/10/10 03:39:45;;;;;;;;;;;;;;;5.23;79.56;102067.59;1898947;76;20159;-60
2021/10/10 03:42:13;;;;;;;;;;;;;;;5.23;79.55;102065.41;1898914;76;20116;-60
2021/10/10 03:44:41;;;;;;;;;;;;;;;5.21;79.47;102059.31;1898933;76;20108;-61
2021/10/10 03:47:09;;;;;;;;;;;;;;;5.22;79.78;102068.91;1898877;76;20151;-60
2021/10/10 03:49:38;;;;;;;;;;;;;;;5.24;79.84;102069.78;1898998;76;20145;-60
2021/10/10 03:52:06;;;;;;;;;;;;;;;5.26;80.00;102064.13;1898883;76;20155;-60
2021/10/10 03:55:13;;;;;;;;;;;;;;;5.25;80.00;102067.59;1900152;75;20112;-60
2021/10/10 03:57:23;;;;;;;;;;;;;;;5.24;80.01;102071.09;1899251;75;20150;-61
2021/10/10 04:00:00;;;;;;;;;;;;;;;5.26;79.88;102073.72;1904497;75;20116;-60
2021/10/10 04:02:22;;;;;;;;;;;;;;;5.28;79.96;102073.28;1902904;75;20179;-60
2021/10/10 04:04:56;;;;;;;;;;;;;;;5.27;79.78;102070.22;1904597;75;20148;-60
2021/10/10 04:07:20;;;;;;;;;;;;;;;5.23;79.63;102070.64;1903230;75;20116;-60
2021/10/10 04:09:48;;;;;;;;;;;;;;;5.19;79.66;102068.89;1904501;75;20116;-62
2021/10/10 04:12:16;;;;;;;;;;;;;;;5.20;79.56;102071.92;1904538;75;20196;-60
2021/10/10 04:14:44;;;;;;;;;;;;;;;5.20;79.74;102074.13;1904547;75;20116;-60
2021/10/10 04:17:11;;;;;;;;;;;;;;;5.25;79.59;102064.98;1904562;75;20116;-60
2021/10/10 04:19:39;;;;;;;;;;;;;;;5.28;79.42;102063.70;1904551;75;20203;-60
2021/10/10 04:22:07;;;;;;;;;;;;;;;5.28;79.29;102065.01;1904505;75;20116;-60
2021/10/10 04:24:35;;;;;;;;;;;;;;;5.27;79.27;102067.16;1904448;75;20162;-61
2021/10/10 04:27:03;;;;;;;;;;;;;;;5.27;79.18;102072.39;1904588;75;20173;-60
2021/10/10 04:29:31;;;;;;;;;;;;;;;5.31;79.13;102070.25;1904513;75;20120;-60
2021/10/10 04:31:59;;;;;;;;;;;;;;;5.34;79.01;102075.47;1904529;75;20112;-61
2021/10/10 04:34:28;;;;;;;;;;;;;;;5.43;78.89;102069.86;1904516;75;20404;-60
2021/10/10 04:36:55;;;;;;;;;;;;;;;5.48;78.79;102062.88;1904491;75;20429;-61
2021/10/10 04:39:23;;;;;;;;;;;;;;;5.54;78.79;102070.77;1904512;75;20158;-60
2021/10/10 04:41:51;;;;;;;;;;;;;;;5.60;78.73;102076.00;1904519;75;20104;-60
2021/10/10 04:44:19;;;;;;;;;;;;;;;5.68;78.87;102079.52;1904534;75;20146;-60
2021/10/10 04:46:47;;;;;;;;;;;;;;;5.75;78.88;102073.41;1904539;75;20116;-60
2021/10/10 04:49:14;;;;;;;;;;;;;;;5.86;78.79;102078.67;1904593;75;20150;-60
2021/10/10 04:51:42;;;;;;;;;;;;;;;5.97;78.71;102089.19;1904404;75;20147;-60
2021/10/10 04:54:10;;;;;;;;;;;;;;;6.12;78.54;102096.17;1904535;75;20107;-60
2021/10/10 04:56:40;;;;;;;;;;;;;;;6.26;78.46;102100.13;1904459;74;20115;-60
2021/10/10 04:59:07;;;;;;;;;;;;;;;6.41;78.34;102102.73;1904624;75;20120;-60
2021/10/10 05:01:35;;;;;;;;;;;;;;;6.59;78.27;102104.48;1904476;75;20258;-60
2021/10/10 05:04:03;;;;;;;;;;;;;;;6.76;78.34;102105.77;1904534;75;20143;-61
2021/10/10 05:06:30;;;;;;;;;;;;;;;6.88;78.39;102111.41;1904653;75;20194;-61
2021/10/10 05:08:58;;;;;;;;;;;;;;;7.22;78.42;102104.36;1904555;75;20150;-61
2021/10/10 05:11:26;;;;;;;;;;;;;;;7.76;78.29;102107.19;1904526;75;20225;-61
2021/10/10 05:13:54;;;;;;;;;;;;;;;8.43;78.12;102105.45;1904574;75;20120;-61
2021/10/10 05:16:22;;;;;;;;;;;;;;;9.05;77.74;102103.55;1916040;74;20109;-64
2021/10/10 05:18:50;;;;;;;;;;;;;;;9.62;77.70;102108.98;1938603;74;20122;-65
2021/10/10 05:21:18;;;;;;;;;;;;;;;10.00;77.56;102111.53;1927427;74;20142;-66
2021/10/10 05:23:46;;;;;;;;;;;;;;;10.28;77.08;102114.20;1904481;75;20159;-68
2021/10/10 05:26:13;;;;;;;;;;;;;;;10.56;76.43;102106.74;1917176;74;20166;-66
2021/10/10 05:28:41;;;;;;;;;;;;;;;10.94;75.31;102107.84;1926068;74;20148;-65
2021/10/10 05:31:09;;;;;;;;;;;;;;;11.57;74.73;102106.57;1920112;74;20146;-65
2021/10/10 05:33:37;;;;;;;;;;;;;;;12.14;74.30;102115.89;1904503;75;20167;-65
2021/10/10 05:36:05;;;;;;;;;;;;;;;12.75;74.37;102118.77;1912737;74;20118;-67
2021/10/10 05:38:34;;;;;;;;;;;;;;;13.40;73.63;102116.57;1938737;74;20114;-61
2021/10/10 05:41:02;;;;;;;;;;;;;;;13.82;71.93;102116.20;1938838;74;20141;-61
2021/10/10 05:43:30;;;;;;;;;;;;;;;14.22;70.66;102116.72;1938803;74;20118;-61
2021/10/10 05:46:00;;;;;;;;;;;;;;;14.46;67.20;102115.08;1938685;74;20185;-62
2021/10/10 05:48:27;;;;;;;;;;;;;;;14.63;66.74;102108.77;1938908;74;20160;-60
2021/10/10 05:50:55;;;;;;;;;;;;;;;14.76;64.10;102108.35;1938730;74;20114;-60
2021/10/10 05:53:24;;;;;;;;;;;;;;;14.91;62.66;102107.80;1938862;74;20109;-60
2021/10/10 05:56:00;;;;;;;;;;;;;;;15.11;63.43;102096.95;1938601;74;20117;-60
2021/10/10 05:58:26;;;;;;;;;;;;;;;15.47;64.50;102111.09;1938915;73;20151;-60
2021/10/10 06:00:54;;;;;;;;;;;;;;;15.77;60.69;102111.28;1938700;74;20117;-61
2021/10/10 06:03:22;;;;;;;;;;;;;;;15.88;61.13;102099.35;1938683;74;20129;-61
2021/10/10 06:05:50;;;;;;;;;;;;;;;15.95;57.42;102115.45;1938703;74;20113;-61
2021/10/10 06:08:18;;;;;;;;;;;;;;;16.07;60.65;102120.75;1938352;74;20117;-62
2021/10/10 06:10:46;;;;;;;;;;;;;;;16.29;57.83;102122.08;1937017;74;20176;-62
2021/10/10 06:13:14;;;;;;;;;;;;;;;16.48;57.61;102123.50;1926029;74;20102;-62
2021/10/10 06:15:42;;;;;;;;;;;;;;;16.57;58.19;102118.66;1926085;74;20114;-62
2021/10/10 06:18:09;;;;;;;;;;;;;;;16.75;57.06;102124.13;1925996;74;20118;-62
2021/10/10 06:20:37;;;;;;;;;;;;;;;17.14;56.05;102122.02;1925998;74;20193;-62
2021/10/10 06:23:05;;;;;;;;;;;;;;;17.54;57.53;102122.88;1926032;74;20148;-62
2021/10/10 06:25:33;;;;;;;;;;;;;;;17.89;57.07;102119.91;1925927;74;20549;-61
2021/10/10 06:28:01;;;;;;;;;;;;;;;18.33;55.77;102115.98;1926064;74;20149;-62
2021/10/10 06:30:28;;;;;;;;;;;;;;;18.65;54.75;102119.70;1926045;74;20118;-61
2021/10/10 06:32:57;;;;;;;;;;;;;;;18.94;52.77;102119.16;1926051;74;20165;-61
2021/10/10 06:35:25;;;;;;;;;;;;;;;18.86;49.05;102113.75;1926176;74;20169;-61
2021/10/10 06:37:53;;;;;;;;;;;;;;;18.98;50.58;102115.38;1925968;74;20114;-61
2021/10/10 06:40:21;;;;;;;;;;;;;;;19.16;47.65;102122.89;1926068;74;20114;-62
2021/10/10 06:42:49;;;;;;;;;;;;;;;19.12;49.18;102123.52;1926100;74;20114;-61
2021/10/10 06:45:17;;;;;;;;;;;;;;;19.24;48.94;102120.20;1926028;74;20126;-61
2021/10/10 06:47:45;;;;;;;;;;;;;;;19.33;48.31;102121.98;1926077;74;20122;-62
2021/10/10 06:50:13;;;;;;;;;;;;;;;19.36;47.45;102116.48;1926056;74;20118;-62
2021/10/10 06:52:41;;;;;;;;;;;;;;;19.33;47.63;102113.97;1926019;74;20145;-61
2021/10/10 06:55:09;;;;;;;;;;;;;;;19.56;45.36;102108.72;1926063;74;20156;-61
2021/10/10 06:57:36;;;;;;;;;;;;;;;19.55;47.06;102114.55;1926181;74;20106;-62
2021/10/10 07:00:05;;;;;;;;;;;;;;;19.93;47.30;102111.55;1926058;74;20110;-61
2021/10/10 07:02:33;;;;;;;;;;;;;;;19.97;45.30;102114.91;1926033;74;20102;-61
2021/10/10 07:05:03;;;;;;;;;;;;;;;20.01;44.80;102110.66;1925943;74;20118;-61
2021/10/10 07:07:31;;;;;;;;;;;;;;;20.17;45.89;102103.08;1926138;74;20482;-61
2021/10/10 07:09:58;;;;;;;;;;;;;;;20.64;45.60;102100.80;1926057;74;20118;-61
2021/10/10 07:12:26;;;;;;;;;;;;;;;20.95;45.95;102098.45;1926070;74;20165;-61
2021/10/10 07:14:54;;;;;;;;;;;;;;;21.46;45.11;102102.00;1926049;74;20150;-61
2021/10/10 07:17:28;;;;;;;;;;;;;;;21.65;43.96;102100.82;1925962;74;20098;-62
2021/10/10 07:19:59;;;;;;;;;;;;;;;21.64;43.99;102097.78;1924389;74;20129;-61
2021/10/10 07:22:29;;;;;;;;;;;;;;;21.78;43.54;102092.36;1923709;74;20102;-61
2021/10/10 07:25:07;;;;;;;;;;;;;;;21.96;43.04;102088.47;1926148;74;20166;-61
2021/10/10 07:27:38;;;;;;;;;;;;;;;22.07;43.66;102096.30;1926054;74;20392;-61
2021/10/10 07:30:07;;;;;;;;;;;;;;;22.22;42.46;102094.41;1926078;73;20391;-62
2021/10/10 07:32:35;;;;;;;;;;;;;;;22.36;43.22;102099.27;1926070;74;20498;-61
2021/10/10 07:35:03;;;;;;;;;;;;;;;22.79;43.90;102095.45;1926032;74;20110;-62
2021/10/10 07:37:31;;;;;;;;;;;;;;;23.10;42.62;102094.20;1926040;74;20118;-61
2021/10/10 07:39:59;;;;;;;;;;;;;;;23.50;42.96;102098.56;1926045;74;20098;-62
2021/10/10 07:42:27;;;;;;;;;;;;;;;23.79;43.06;102103.19;1925919;74;20255;-62
2021/10/10 07:44:57;;;;;;;;;;;;;;;24.20;42.34;102103.27;1926136;74;20102;-62
2021/10/10 07:49:56;;;;;;;;;;;;;;;24.26;42.00;102091.19;1926441;74;20117;-61
2021/10/10 07:52:24;;;;;;;;;;;;;;;24.14;40.29;102090.26;1926219;74;20114;-61
2021/10/10 07:54:52;;;;;;;;;;;;;;;23.84;39.82;102088.89;1926153;74;20144;-62
2021/10/10 07:57:20;;;;;;;;;;;;;;;23.57;38.58;102090.89;1923482;74;20114;-61
2021/10/10 07:59:48;;;;;;;;;;;;;;;23.21;38.43;102093.94;1920054;75;20153;-61
2021/10/10 08:02:16;;;;;;;;;;;;;;;23.24;39.15;102092.35;1920310;75;20376;-61
2021/10/10 08:04:44;;;;;;;;;;;;;;;23.27;38.20;102084.08;1920080;75;20118;-62
2021/10/10 08:07:11;;;;;;;;;;;;;;;23.34;38.32;102085.36;1920254;75;20141;-62
2021/10/10 08:09:39;;;;;;;;;;;;;;;23.78;39.16;102089.33;1920000;75;20122;-61
2021/10/10 08:12:07;;;;;;;;;;;;;;;24.22;38.39;102083.83;1920079;75;20162;-61
2021/10/10 08:14:35;;;;;;;;;;;;;;;24.12;37.87;102084.14;1920078;75;20187;-61
2021/10/10 08:17:03;;;;;;;;;;;;;;;23.93;37.47;102083.82;1920209;75;20102;-61
2021/10/10 08:19:31;;;;;;;;;;;;;;;24.47;38.13;102084.17;1920095;75;20149;-61
2021/10/10 08:21:59;;;;;;;;;;;;;;;24.71;36.06;102085.95;1920027;75;20110;-63
2021/10/10 08:24:29;;;;;;;;;;;;;;;24.35;36.04;102089.63;1920052;75;20262;-61
2021/10/10 08:26:56;;;;;;;;;;;;;;;24.23;37.05;102089.56;1919997;75;20114;-61
2021/10/10 08:29:24;;;;;;;;;;;;;;;24.21;36.74;102088.83;1920031;75;20115;-61
2021/10/10 08:31:52;;;;;;;;;;;;;;;24.57;37.22;102081.64;1920067;75;20111;-61
2021/10/10 08:34:19;;;;;;;;;;;;;;;24.81;36.60;102086.11;1920057;75;20119;-61
2021/10/10 08:36:48;;;;;;;;;;;;;;;24.93;36.92;102082.42;1920113;75;20209;-62
2021/10/10 08:39:22;;;;;;;;;;;;;;;25.22;36.66;102073.87;1920075;75;20126;-62
2021/10/10 08:41:46;;;;;;;;;;;;;;;25.23;36.05;102078.26;1920866;74;20102;-63
2021/10/10 08:44:18;;;;;;;;;;;;;;;24.75;35.65;102081.17;1920053;75;20118;-62
2021/10/10 08:46:46;;;;;;;;;;;;;;;24.57;35.87;102084.34;1920147;75;20114;-62
2021/10/10 08:49:14;;;;;;;;;;;;;;;24.88;36.56;102083.30;1919982;75;20142;-62
2021/10/10 08:51:42;;;;;;;;;;;;;;;25.20;35.71;102079.88;1920074;75;20114;-62
2021/10/10 08:54:10;;;;;;;;;;;;;;;25.14;36.18;102077.66;1920078;75;20114;-62
2021/10/10 08:56:40;;;;;;;;;;;;;;;25.40;35.49;102080.50;1920062;75;20114;-62
2021/10/10 08:59:10;;;;;;;;;;;;;;;25.22;35.67;102071.17;1925695;74;20161;-62
2021/10/10 09:01:39;;;;;;;;;;;;;;;25.50;36.11;102070.31;1926109;74;20207;-62
2021/10/10 09:04:06;;;;;;;;;;;;;;;25.39;35.24;102074.73;1926034;74;20420;-62
2021/10/10 09:06:40;;;;;;;;;;;;;;;25.30;35.51;102076.82;1926081;74;20142;-62
2021/10/10 09:09:22;;;;;;;;;;;;;;;25.50;35.50;102074.36;1925426;74;20118;-62
2021/10/10 09:11:50;;;;;;;;;;;;;;;25.43;35.20;102078.91;1926075;74;20118;-61
2021/10/10 09:14:18;;;;;;;;;;;;;;;25.24;35.50;102075.98;1925979;74;20110;-62
2021/10/10 09:16:46;;;;;;;;;;;;;;;25.52;35.94;102078.63;1926099;74;20152;-63
2021/10/10 09:19:27;;;;;;;;;;;;;;;25.61;35.76;102077.87;1926018;74;20118;-64
2021/10/10 09:21:59;;;;;;;;;;;;;;;25.60;35.31;102075.30;1926093;74;20186;-63
2021/10/10 09:24:27;;;;;;;;;;;;;;;25.80;35.57;102075.02;1926066;74;20415;-65
2021/10/10 09:26:55;;;;;;;;;;;;;;;25.88;35.79;102067.66;1926071;74;20189;-63
2021/10/10 09:29:37;;;;;;;;;;;;;;;26.19;35.54;102076.73;1926170;74;20118;-63
2021/10/10 09:32:13;;;;;;;;;;;;;;;26.15;35.38;102069.42;1926090;74;20110;-63
2021/10/10 09:34:41;;;;;;;;;;;;;;;25.90;35.25;102073.28;1925493;74;20106;-69
2021/10/10 09:37:18;;;;;;;;;;;;;;;25.62;35.18;102074.22;1934650;74;20113;-65
2021/10/10 09:39:44;;;;;;;;;;;;;;;25.47;35.41;102069.20;1937467;74;20113;-63
2021/10/10 09:42:10;;;;;;;;;;;;;;;25.35;35.83;102069.23;1915323;73;20119;-64
2021/10/10 09:44:47;;;;;;;;;;;;;;;25.05;35.01;102065.80;1904464;75;20112;-66
2021/10/10 09:47:18;;;;;;;;;;;;;;;24.69;35.46;102070.89;1928998;74;20113;-64
2021/10/10 09:49:44;;;;;;;;;;;;;;;24.42;35.59;102066.16;1938282;74;20110;-62
2021/10/10 09:52:13;;;;;;;;;;;;;;;24.40;35.89;102061.84;1914538;74;20116;-62
2021/10/10 09:54:48;;;;;;;;;;;;;;;24.75;36.20;102062.33;1904512;75;20120;-63
2021/10/10 09:57:16;;;;;;;;;;;;;;;24.82;35.63;102064.41;1929348;74;20105;-65
2021/10/10 09:59:44;;;;;;;;;;;;;;;24.50;35.59;102057.48;1912799;74;20118;-65
2021/10/10 10:02:12;;;;;;;;;;;;;;;24.58;36.00;102057.77;1894652;75;20109;-69
2021/10/10 10:04:48;;;;;;;;;;;;;;;24.35;36.02;102060.02;1887391;76;20151;-65
2021/10/10 10:07:20;;;;;;;;;;;;;;;24.23;36.31;102061.30;1887521;75;20367;-68
2021/10/10 10:09:52;;;;;;;;;;;;;;;24.07;36.16;102064.82;1887379;76;20184;-67
2021/10/10 10:12:21;;;;;;;;;;;;;;;24.08;36.66;102053.91;1912001;75;20126;-69
2021/10/10 10:14:50;;;;;;;;;;;;;;;23.97;36.85;102055.71;1920018;75;20126;-67
2021/10/10 10:17:22;;;;;;;;;;;;;;;23.97;36.92;102061.09;1895950;75;20186;-66
2021/10/10 10:19:51;;;;;;;;;;;;;;;23.81;36.92;102056.87;1887473;76;20375;-64
2021/10/10 10:22:19;;;;;;;;;;;;;;;23.89;37.17;102058.48;1911873;75;20167;-61
2021/10/10 10:24:47;;;;;;;;;;;;;;;24.07;37.46;102054.91;1919980;75;20114;-61
2021/10/10 10:27:16;;;;;;;;;;;;;;;23.84;36.99;102057.97;1913875;75;20115;-67
2021/10/10 10:29:48;;;;;;;;;;;;;;;23.59;37.45;102059.38;1911709;75;20141;-67
2021/10/10 10:32:17;;;;;;;;;;;;;;;23.75;37.86;102059.96;1893917;75;20105;-67
2021/10/10 10:34:46;;;;;;;;;;;;;;;23.98;37.70;102056.09;1887313;76;20109;-66
2021/10/10 10:37:14;;;;;;;;;;;;;;;24.06;37.32;102059.90;1907408;75;20150;-63
2021/10/10 10:39:49;;;;;;;;;;;;;;;23.63;37.65;102060.89;1919895;75;20144;-63
2021/10/10 10:42:27;;;;;;;;;;;;;;;23.62;38.20;102064.53;1920027;75;20353;-62
2021/10/10 10:44:56;;;;;;;;;;;;;;;23.55;38.43;102060.58;1919939;75;20102;-61
2021/10/10 10:47:25;;;;;;;;;;;;;;;23.53;38.38;102065.21;1919996;75;20419;-61
2021/10/10 10:49:55;;;;;;;;;;;;;;;23.49;38.65;102061.39;1919973;75;20381;-61
2021/10/10 10:52:27;;;;;;;;;;;;;;;23.16;38.66;102059.32;1920058;75;20122;-60
2021/10/10 10:55:13;;;;;;;;;;;;;;;23.05;38.96;102054.70;1920100;75;20190;-61
2021/10/10 10:57:45;;;;;;;;;;;;;;;22.88;39.10;102054.53;1920075;75;20157;-61
2021/10/10 11:00:16;;;;;;;;;;;;;;;22.62;39.45;102052.34;1925443;74;20118;-60
2021/10/10 11:02:51;;;;;;;;;;;;;;;22.65;39.87;102049.91;1925945;73;20169;-61
2021/10/10 11:05:37;;;;;;;;;;;;;;;22.55;39.89;102047.02;1925988;74;20177;-61
2021/10/10 11:08:06;;;;;;;;;;;;;;;22.33;40.40;102047.63;1926085;74;20114;-61
2021/10/10 11:10:35;;;;;;;;;;;;;;;22.24;40.61;102054.44;1926158;74;20122;-61
2021/10/10 11:13:07;;;;;;;;;;;;;;;22.07;41.04;102054.73;1926117;74;20353;-61
2021/10/10 11:15:52;;;;;;;;;;;;;;;21.98;41.09;102058.42;1926032;74;20122;-61
2021/10/10 11:18:20;;;;;;;;;;;;;;;21.79;41.17;102060.09;1926143;74;20149;-61
2021/10/10 11:20:50;;;;;;;;;;;;;;;21.59;41.70;102060.05;1926156;74;20161;-60
2021/10/10 11:23:18;;;;;;;;;;;;;;;21.36;42.07;102057.98;1925904;73;20165;-62
2021/10/10 11:25:49;;;;;;;;;;;;;;;21.28;42.47;102055.77;1926117;74;20196;-61
2021/10/10 11:28:15;;;;;;;;;;;;;;;21.27;42.76;102055.89;1925973;74;20114;-65
2021/10/10 11:30:43;;;;;;;;;;;;;;;21.13;43.06;102056.25;1924138;74;20114;-62
2021/10/10 11:33:12;;;;;;;;;;;;;;;20.87;43.56;102054.36;1904617;75;20104;-61
2021/10/10 11:35:41;;;;;;;;;;;;;;;20.59;44.14;102056.86;1907022;74;20108;-63
2021/10/10 11:38:14;;;;;;;;;;;;;;;20.28;44.73;102056.50;1938791;74;20391;-61
2021/10/10 11:40:39;;;;;;;;;;;;;;;19.92;45.20;102055.05;1923286;74;20106;-62
2021/10/10 11:43:07;;;;;;;;;;;;;;;19.59;45.74;102056.46;1904593;75;20147;-61
2021/10/10 11:45:34;;;;;;;;;;;;;;;19.31;46.46;102053.98;1905763;74;20152;-62
2021/10/10 11:48:02;;;;;;;;;;;;;;;19.07;46.92;102056.16;1938741;74;20122;-62
2021/10/10 11:50:34;;;;;;;;;;;;;;;18.96;47.17;102049.20;1938382;74;20152;-62
2021/10/10 11:53:03;;;;;;;;;;;;;;;18.83;47.70;102052.55;1904635;75;20119;-61
2021/10/10 11:55:43;;;;;;;;;;;;;;;18.67;48.07;102055.60;1904973;74;20366;-62
2021/10/10 11:58:06;;;;;;;;;;;;;;;18.52;48.61;102054.11;1937695;74;20118;-61
2021/10/10 12:00:35;;;;;;;;;;;;;;;18.44;48.85;102047.00;1938323;74;20140;-61
2021/10/10 12:03:09;;;;;;;;;;;;;;;18.33;49.44;102044.88;1926045;74;20149;-61
2021/10/10 12:05:44;;;;;;;;;;;;;;;18.25;49.69;102054.20;1925229;74;20145;-61
2021/10/10 12:08:19;;;;;;;;;;;;;;;18.17;49.61;102051.03;1903956;75;20120;-62
2021/10/10 12:10:48;;;;;;;;;;;;;;;18.12;49.98;102052.14;1904764;74;20115;-62
2021/10/10 12:13:16;;;;;;;;;;;;;;;17.98;50.99;102050.62;1904671;75;20374;-62
2021/10/10 12:15:44;;;;;;;;;;;;;;;17.90;51.11;102047.48;1907976;74;20144;-62
2021/10/10 12:18:14;;;;;;;;;;;;;;;17.83;51.31;102049.54;1938755;74;20144;-65
2021/10/10 12:20:42;;;;;;;;;;;;;;;17.74;51.62;102044.66;1935846;74;20125;-65
2021/10/10 12:23:11;;;;;;;;;;;;;;;17.71;51.80;102044.83;1904728;75;20124;-63
2021/10/10 12:25:41;;;;;;;;;;;;;;;17.64;51.94;102048.25;1906995;74;20354;-64
2021/10/10 12:28:13;;;;;;;;;;;;;;;17.61;51.95;102045.72;1938701;74;20181;-64
2021/10/10 12:30:54;;;;;;;;;;;;;;;17.57;52.24;102044.14;1935873;74;20109;-64
2021/10/10 12:33:23;;;;;;;;;;;;;;;17.47;52.53;102053.05;1904748;75;20120;-64
2021/10/10 12:35:55;;;;;;;;;;;;;;;17.39;52.75;102051.20;1904772;74;20253;-63
2021/10/10 12:38:31;;;;;;;;;;;;;;;17.40;53.12;102048.09;1904515;75;20120;-64
2021/10/10 12:40:59;;;;;;;;;;;;;;;17.39;53.30;102049.02;1911369;74;20161;-64
2021/10/10 12:43:34;;;;;;;;;;;;;;;17.35;53.20;102048.29;1938730;74;20117;-63
2021/10/10 12:46:02;;;;;;;;;;;;;;;17.34;53.27;102056.75;1931114;73;20147;-64
2021/10/10 12:48:30;;;;;;;;;;;;;;;17.31;53.56;102048.90;1904550;75;20124;-64
2021/10/10 12:51:00;;;;;;;;;;;;;;;17.29;53.49;102057.42;1911275;74;20164;-63